createdAt,value
2023-05-24T00:02:07.303Z,67.98
2023-05-24T00:05:10.303Z,68.00
2023-05-24T00:08:12.264Z,67.91
2023-05-24T00:11:13.954Z,67.88
2023-05-24T00:14:15.657Z,67.96
2023-05-24T00:17:17.459Z,67.95
2023-05-24T00:20:20.102Z,67.86
2023-05-24T00:23:22.101Z,68.02
2023-05-24T00:26:23.834Z,67.90
2023-05-24T00:29:29.650Z,67.77
2023-05-24T00:32:32.601Z,67.87
2023-05-24T00:35:34.721Z,67.81
2023-05-24T00:38:36.470Z,67.73
2023-05-24T00:41:38.203Z,67.71
2023-05-24T00:44:40.344Z,67.88
2023-05-24T00:47:42.418Z,67.69
2023-05-24T00:50:44.283Z,67.64
2023-05-24T00:53:47.796Z,67.57
2023-05-24T00:56:49.780Z,67.70
2023-05-24T00:59:52.102Z,67.63
2023-05-24T01:02:54.616Z,67.51
2023-05-24T01:05:57.964Z,67.64
2023-05-24T01:09:06.172Z,67.64
2023-05-24T01:12:22.981Z,67.49
2023-05-24T01:15:36.747Z,67.48
2023-05-24T01:18:43.638Z,67.52
2023-05-24T01:22:01.193Z,67.52
2023-05-24T01:25:13.982Z,67.57
2023-05-24T01:28:20.870Z,67.40
2023-05-24T01:31:23.336Z,67.45
2023-05-24T01:34:26.357Z,67.37
2023-05-24T01:37:28.144Z,67.50
2023-05-24T01:40:30.037Z,67.33
2023-05-24T01:43:40.269Z,67.41
2023-05-24T01:46:42.159Z,67.17
2023-05-24T01:49:49.856Z,67.41
2023-05-24T01:52:52.895Z,67.45
2023-05-24T01:55:56.601Z,67.29
2023-05-24T01:59:01.177Z,67.31
2023-05-24T02:02:05.162Z,67.50
2023-05-24T02:05:07.331Z,67.36
2023-05-24T02:08:09.832Z,67.32
2023-05-24T02:11:11.586Z,67.24
2023-05-24T02:14:13.743Z,67.34
2023-05-24T02:17:17.350Z,67.39
2023-05-24T02:20:21.951Z,67.36
2023-05-24T02:23:23.669Z,67.28
2023-05-24T02:26:25.503Z,67.37
2023-05-24T02:29:27.237Z,67.37
2023-05-24T02:32:29.039Z,67.27
2023-05-24T02:35:32.689Z,67.34
2023-05-24T02:38:34.933Z,67.28
2023-05-24T02:41:36.553Z,67.21
2023-05-24T02:44:38.251Z,67.16
2023-05-24T02:47:40.051Z,67.29
2023-05-24T02:50:42.181Z,67.42
2023-05-24T02:53:44.774Z,67.34
2023-05-24T02:56:47.316Z,67.36
2023-05-24T02:59:50.515Z,67.38
2023-05-24T03:02:52.364Z,67.37
2023-05-24T03:05:54.218Z,67.51
2023-05-24T03:08:56.428Z,67.39
2023-05-24T03:11:59.082Z,67.33
2023-05-24T03:15:00.888Z,67.46
2023-05-24T03:18:06.195Z,67.48
2023-05-24T03:21:08.130Z,67.43
2023-05-24T03:24:10.020Z,67.34
2023-05-24T03:27:12.871Z,67.26
2023-05-24T03:30:14.791Z,67.39
2023-05-24T03:33:25.957Z,67.43
2023-05-24T03:36:28.490Z,67.35
2023-05-24T03:39:30.363Z,67.34
2023-05-24T03:42:50.452Z,67.32
2023-05-24T03:45:52.407Z,67.63
2023-05-24T03:48:54.322Z,67.44
2023-05-24T03:51:56.165Z,67.52
2023-05-24T03:54:57.952Z,67.39
2023-05-24T03:57:59.746Z,67.53
2023-05-24T04:01:01.688Z,67.40
2023-05-24T04:04:03.674Z,67.38
2023-05-24T04:07:07.300Z,67.44
2023-05-24T04:10:09.368Z,67.32
2023-05-24T04:13:11.120Z,67.49
2023-05-24T04:16:13.451Z,67.36
2023-05-24T04:19:15.661Z,67.29
2023-05-24T04:22:18.021Z,67.19
2023-05-24T04:25:20.306Z,67.05
2023-05-24T04:28:23.108Z,67.04
2023-05-24T04:31:28.727Z,66.80
2023-05-24T04:34:35.099Z,66.76
2023-05-24T04:37:37.001Z,66.73
2023-05-24T04:40:38.792Z,66.67
2023-05-24T04:43:40.593Z,66.46
2023-05-24T04:46:42.295Z,66.36
2023-05-24T04:49:45.072Z,66.36
2023-05-24T04:52:46.744Z,66.32
2023-05-24T04:55:49.498Z,66.40
2023-05-24T04:58:51.250Z,66.34
2023-05-24T05:01:53.203Z,66.29
2023-05-24T05:04:55.029Z,66.34
2023-05-24T05:07:56.892Z,66.28
2023-05-24T05:10:58.681Z,66.20
2023-05-24T05:14:00.714Z,66.07
2023-05-24T05:17:02.431Z,66.07
2023-05-24T05:20:07.718Z,65.89
2023-05-24T05:23:09.537Z,65.83
2023-05-24T05:26:12.995Z,65.97
2023-05-24T05:29:14.903Z,65.81
2023-05-24T05:32:16.709Z,65.68
2023-05-24T05:35:18.582Z,65.71
2023-05-24T05:38:20.339Z,65.60
2023-05-24T05:41:22.250Z,65.64
2023-05-24T05:44:23.994Z,65.52
2023-05-24T05:47:25.753Z,65.77
2023-05-24T05:50:27.560Z,65.62
2023-05-24T05:53:29.475Z,65.62
2023-05-24T05:56:32.136Z,65.58
2023-05-24T05:59:35.452Z,65.52
2023-05-24T06:02:37.240Z,65.38
2023-05-24T06:05:39.164Z,65.49
2023-05-24T06:08:41.258Z,65.28
2023-05-24T06:11:44.341Z,65.33
2023-05-24T06:14:47.711Z,65.33
2023-05-24T06:17:51.276Z,65.24
2023-05-24T06:20:53.120Z,65.20
2023-05-24T06:23:57.663Z,65.22
2023-05-24T06:26:59.496Z,65.25
2023-05-24T06:30:01.427Z,65.24
2023-05-24T06:33:03.580Z,65.30
2023-05-24T06:36:05.496Z,65.25
2023-05-24T06:39:07.274Z,65.26
2023-05-24T06:42:08.964Z,65.32
2023-05-24T06:45:13.763Z,65.43
2023-05-24T06:48:15.619Z,65.45
2023-05-24T06:51:17.575Z,65.35
2023-05-24T06:54:19.444Z,65.30
2023-05-24T06:57:21.668Z,65.30
2023-05-24T07:00:23.688Z,65.19
2023-05-24T07:03:25.950Z,65.31
2023-05-24T07:06:27.684Z,65.40
2023-05-24T07:09:29.612Z,65.29
2023-05-24T07:12:32.011Z,65.37
2023-05-24T07:15:33.840Z,65.20
2023-05-24T07:18:35.793Z,65.17
2023-05-24T07:21:37.626Z,65.26
2023-05-24T07:24:39.469Z,65.11
2023-05-24T07:27:41.423Z,65.17
2023-05-24T07:30:44.547Z,65.17
2023-05-24T07:33:46.920Z,65.04
2023-05-24T07:36:48.942Z,64.94
2023-05-24T07:39:51.672Z,64.90
2023-05-24T07:42:53.548Z,64.92
2023-05-24T07:45:55.829Z,64.91
2023-05-24T07:48:57.656Z,64.90
2023-05-24T07:51:59.757Z,64.66
2023-05-24T07:55:02.280Z,64.72
2023-05-24T07:58:04.148Z,65.02
2023-05-24T08:01:05.971Z,64.74
2023-05-24T08:04:09.352Z,64.47
2023-05-24T08:07:11.209Z,64.40
2023-05-24T08:10:13.128Z,64.43
2023-05-24T08:13:15.051Z,64.40
2023-05-24T08:16:17.887Z,64.28
2023-05-24T08:19:19.676Z,64.28
2023-05-24T08:22:21.544Z,64.19
2023-05-24T08:25:23.595Z,64.20
2023-05-24T08:28:26.226Z,64.14
2023-05-24T08:31:28.097Z,64.21
2023-05-24T08:34:30.121Z,63.91
2023-05-24T08:37:32.773Z,63.91
2023-05-24T08:40:34.722Z,63.82
2023-05-24T08:43:41.313Z,63.78
2023-05-24T08:46:43.611Z,63.81
2023-05-24T08:49:46.978Z,63.65
2023-05-24T08:52:50.986Z,63.58
2023-05-24T08:55:55.579Z,63.62
2023-05-24T08:58:57.504Z,63.66
2023-05-24T09:02:00.761Z,63.46
2023-05-24T09:05:04.311Z,63.49
2023-05-24T09:08:06.495Z,63.51
2023-05-24T09:11:08.633Z,63.51
2023-05-24T09:14:10.680Z,63.63
2023-05-24T09:17:15.785Z,63.56
2023-05-24T09:20:18.147Z,63.56
2023-05-24T09:23:20.156Z,63.46
2023-05-24T09:26:21.973Z,63.43
2023-05-24T09:29:24.073Z,63.28
2023-05-24T09:32:26.254Z,63.33
2023-05-24T09:35:28.034Z,63.11
2023-05-24T09:38:30.298Z,62.98
2023-05-24T09:41:32.119Z,62.84
2023-05-24T09:44:33.942Z,63.07
2023-05-24T09:47:37.392Z,62.99
2023-05-24T09:50:39.493Z,63.14
2023-05-24T09:53:46.382Z,63.17
2023-05-24T09:56:48.347Z,63.08
2023-05-24T09:59:51.182Z,63.11
2023-05-24T10:03:08.201Z,63.04
2023-05-24T10:06:11.446Z,63.08
2023-05-24T10:09:14.103Z,63.02
2023-05-24T10:12:22.397Z,63.04
2023-05-24T10:15:25.564Z,63.09
2023-05-24T10:18:28.004Z,63.02
2023-05-24T10:21:32.284Z,63.00
2023-05-24T10:24:47.172Z,63.05
2023-05-24T10:27:51.338Z,63.13
2023-05-24T10:31:05.256Z,63.01
2023-05-24T10:34:09.007Z,63.00
2023-05-24T10:37:11.494Z,62.85
2023-05-24T10:40:16.869Z,62.85
2023-05-24T10:43:18.807Z,62.80
2023-05-24T10:46:22.155Z,62.85
2023-05-24T10:49:24.012Z,62.82
2023-05-24T10:52:35.750Z,62.68
2023-05-24T10:55:50.698Z,62.60
2023-05-24T10:58:57.303Z,62.64
2023-05-24T11:02:00.232Z,62.73
2023-05-24T11:05:05.364Z,62.72
2023-05-24T11:08:07.481Z,62.69
2023-05-24T11:14:19.871Z,62.69
2023-05-24T11:17:23.276Z,62.64
2023-05-24T11:20:25.515Z,62.70
2023-05-24T11:23:28.516Z,62.66
2023-05-24T11:26:30.908Z,62.65
2023-05-24T11:29:40.637Z,62.48
2023-05-24T11:32:48.819Z,62.33
2023-05-24T11:35:54.910Z,62.28
2023-05-24T11:38:57.094Z,62.13
2023-05-24T11:41:59.365Z,62.17
2023-05-24T11:45:01.390Z,62.25
2023-05-24T11:48:07.190Z,62.27
2023-05-24T11:51:09.069Z,62.18
2023-05-24T11:54:11.271Z,62.22
2023-05-24T11:57:13.725Z,62.19
2023-05-24T12:00:24.058Z,62.02
2023-05-24T12:03:26.294Z,61.92
2023-05-24T12:06:38.007Z,61.99
2023-05-24T12:09:39.857Z,61.98
2023-05-24T12:12:45.981Z,61.94
2023-05-24T12:15:58.263Z,61.90
2023-05-24T12:19:07.198Z,61.87
2023-05-24T12:22:11.519Z,61.73
2023-05-24T12:25:15.990Z,61.63
2023-05-24T12:28:24.190Z,61.59
2023-05-24T12:31:26.302Z,61.52
2023-05-24T12:34:28.448Z,61.51
2023-05-24T12:37:30.577Z,61.62
2023-05-24T12:40:32.930Z,61.64
2023-05-24T12:43:34.827Z,61.64
2023-05-24T12:46:36.691Z,61.64
2023-05-24T12:49:38.538Z,61.64
2023-05-24T12:52:40.364Z,61.68
2023-05-24T12:55:42.249Z,61.50
2023-05-24T12:58:44.057Z,61.57
2023-05-24T13:01:50.107Z,61.43
2023-05-24T13:04:51.992Z,61.44
2023-05-24T13:07:56.143Z,61.46
2023-05-24T13:10:58.012Z,61.41
2023-05-24T13:13:59.929Z,61.32
2023-05-24T13:17:02.005Z,61.51
2023-05-24T13:20:07.260Z,61.39
2023-05-24T13:23:12.405Z,61.33
2023-05-24T13:26:14.485Z,61.44
2023-05-24T13:32:21.698Z,61.72
2023-05-24T13:35:23.889Z,61.50
2023-05-24T13:38:26.374Z,61.44
2023-05-24T13:41:28.234Z,61.30
2023-05-24T13:44:31.702Z,61.35
2023-05-24T13:47:39.843Z,61.22
2023-05-24T13:50:44.550Z,61.32
2023-05-24T13:53:56.997Z,61.11
2023-05-24T13:57:02.102Z,61.04
2023-05-24T14:00:04.503Z,61.08
2023-05-24T14:03:07.133Z,60.97
2023-05-24T14:06:09.334Z,61.08
2023-05-24T14:09:11.248Z,61.09
2023-05-24T14:12:13.346Z,61.08
2023-05-24T14:15:15.169Z,61.20
2023-05-24T14:18:17.084Z,61.19
2023-05-24T14:21:21.043Z,61.11
2023-05-24T14:24:23.676Z,60.96
2023-05-24T14:27:25.500Z,61.01
2023-05-24T14:30:27.292Z,60.95
2023-05-24T14:33:29.073Z,60.92
2023-05-24T14:36:31.097Z,61.01
2023-05-24T14:39:33.250Z,61.08
2023-05-24T14:42:35.524Z,61.05
2023-05-24T14:45:43.743Z,61.11
2023-05-24T14:48:45.855Z,61.12
2023-05-24T14:51:50.505Z,61.16
2023-05-24T14:54:52.350Z,61.18
2023-05-24T14:57:54.214Z,61.18
2023-05-24T15:00:56.146Z,61.08
2023-05-24T15:03:58.133Z,61.08
2023-05-24T15:07:00.203Z,61.05
2023-05-24T15:10:02.519Z,60.95
2023-05-24T15:13:04.710Z,60.89
2023-05-24T15:16:06.410Z,60.98
2023-05-24T15:19:09.520Z,61.16
2023-05-24T15:22:11.309Z,61.09
2023-05-24T15:25:13.391Z,61.09
2023-05-24T15:28:16.598Z,61.12
2023-05-24T15:31:18.744Z,61.03
2023-05-24T15:34:23.449Z,61.15
2023-05-24T15:37:25.897Z,61.26
2023-05-24T15:40:27.904Z,61.16
2023-05-24T15:43:30.294Z,61.10
2023-05-24T15:46:32.309Z,61.23
2023-05-24T15:49:34.346Z,61.18
2023-05-24T15:52:36.124Z,61.20
2023-05-24T15:55:38.439Z,61.26
2023-05-24T15:58:40.512Z,61.44
2023-05-24T16:01:42.451Z,61.26
2023-05-24T16:04:44.331Z,61.34
2023-05-24T16:07:46.222Z,61.23
2023-05-24T16:10:48.550Z,61.23
2023-05-24T16:13:50.481Z,61.13
2023-05-24T16:16:52.361Z,61.34
2023-05-24T16:19:54.396Z,61.45
2023-05-24T16:22:57.502Z,61.50
2023-05-24T16:25:59.319Z,61.54
2023-05-24T16:29:01.341Z,61.52
2023-05-24T16:32:03.396Z,61.42
2023-05-24T16:35:06.703Z,61.46
2023-05-24T16:38:08.730Z,61.61
2023-05-24T16:41:10.556Z,61.43
2023-05-24T16:44:16.865Z,61.54
2023-05-24T16:47:18.616Z,61.50
2023-05-24T16:50:20.397Z,61.65
2023-05-24T16:53:26.399Z,61.64
2023-05-24T16:56:28.446Z,61.68
2023-05-24T16:59:30.251Z,61.73
2023-05-24T17:02:33.743Z,61.65
2023-05-24T17:05:35.656Z,61.70
2023-05-24T17:08:37.554Z,61.72
2023-05-24T17:11:40.556Z,61.72
2023-05-24T17:14:42.656Z,61.85
2023-05-24T17:17:44.932Z,61.82
2023-05-24T17:20:47.007Z,61.93
2023-05-24T17:23:49.026Z,61.99
2023-05-24T17:26:50.689Z,61.93
2023-05-24T17:30:16.400Z,61.93
2023-05-24T17:33:18.225Z,61.96
2023-05-24T17:36:20.705Z,62.03
2023-05-24T17:39:23.207Z,61.98
2023-05-24T17:42:25.073Z,61.95
2023-05-24T17:45:26.920Z,62.02
2023-05-24T17:48:30.751Z,62.02
2023-05-24T17:51:34.861Z,62.05
2023-05-24T17:54:36.627Z,62.09
2023-05-24T17:57:38.391Z,62.24
2023-05-24T18:00:40.403Z,62.11
2023-05-24T18:03:42.620Z,62.14
2023-05-24T18:06:44.751Z,62.21
2023-05-24T18:09:46.718Z,62.30
2023-05-24T18:12:48.478Z,62.32
2023-05-24T18:15:50.363Z,62.38
2023-05-24T18:18:52.242Z,62.44
2023-05-24T18:21:53.965Z,62.55
2023-05-24T18:24:55.748Z,62.46
2023-05-24T18:27:58.360Z,62.55
2023-05-24T18:31:00.289Z,62.47
2023-05-24T18:34:02.617Z,62.61
2023-05-24T18:37:04.608Z,62.76
2023-05-24T18:40:07.146Z,62.98
2023-05-24T18:43:08.895Z,62.81
2023-05-24T18:46:14.326Z,62.72
2023-05-24T18:49:17.052Z,62.78
2023-05-24T18:52:18.812Z,62.88
2023-05-24T18:55:20.540Z,62.69
2023-05-24T18:58:22.418Z,62.71
2023-05-24T19:01:24.986Z,62.91
2023-05-24T19:04:28.456Z,62.88
2023-05-24T19:07:30.323Z,63.00
2023-05-24T19:10:32.023Z,62.99
2023-05-24T19:13:33.682Z,63.01
2023-05-24T19:16:35.901Z,62.94
2023-05-24T19:19:37.588Z,63.37
2023-05-24T19:22:39.357Z,63.27
2023-05-24T19:25:43.348Z,63.28
2023-05-24T19:28:51.483Z,63.51
2023-05-24T19:31:53.347Z,63.54
2023-05-24T19:34:55.107Z,63.52
2023-05-24T19:37:56.864Z,63.28
2023-05-24T19:40:58.732Z,63.25
2023-05-24T19:44:00.788Z,63.38
2023-05-24T19:47:02.596Z,63.20
2023-05-24T19:50:05.521Z,63.24
2023-05-24T19:53:07.243Z,63.31
2023-05-24T19:56:09.867Z,63.07
2023-05-24T19:59:11.778Z,63.24
2023-05-24T20:02:16.458Z,63.21
2023-05-24T20:05:18.181Z,63.25
2023-05-24T20:08:21.601Z,63.15
2023-05-24T20:11:23.622Z,63.13
2023-05-24T20:14:27.441Z,63.19
2023-05-24T20:17:29.211Z,63.10
2023-05-24T20:20:31.765Z,63.07
2023-05-24T20:23:33.590Z,63.15
2023-05-24T20:26:36.389Z,63.14
2023-05-24T20:29:38.205Z,63.18
2023-05-24T20:32:40.069Z,63.09
2023-05-24T20:35:42.436Z,63.04
2023-05-24T20:38:44.413Z,63.11
2023-05-24T20:41:46.113Z,63.11
2023-05-24T20:44:48.048Z,63.01
2023-05-24T20:47:50.036Z,63.03
2023-05-24T20:50:51.853Z,63.04
2023-05-24T20:53:53.649Z,63.13
2023-05-24T20:56:55.449Z,63.04
2023-05-24T20:59:57.166Z,63.17
2023-05-24T21:02:59.061Z,63.12
2023-05-24T21:06:01.008Z,63.26
2023-05-24T21:09:02.856Z,63.15
2023-05-24T21:12:05.766Z,63.08
2023-05-24T21:15:08.157Z,63.20
2023-05-24T21:18:09.985Z,63.22
2023-05-24T21:21:11.824Z,63.18
2023-05-24T21:24:15.281Z,63.14
2023-05-24T21:27:18.293Z,63.19
2023-05-24T21:30:20.103Z,63.10
2023-05-24T21:33:21.837Z,63.28
2023-05-24T21:36:23.640Z,63.23
2023-05-24T21:39:25.390Z,63.13
2023-05-24T21:42:27.056Z,63.28
2023-05-24T21:45:28.813Z,63.20
2023-05-24T21:48:30.488Z,63.31
2023-05-24T21:51:32.419Z,63.24
2023-05-24T21:54:34.252Z,63.26
2023-05-24T21:57:36.066Z,63.38
2023-05-24T22:00:37.942Z,63.28
2023-05-24T22:03:39.750Z,63.42
2023-05-24T22:06:42.085Z,63.38
2023-05-24T22:09:43.789Z,63.28
2023-05-24T22:12:45.566Z,63.26
2023-05-24T22:15:47.368Z,63.31
2023-05-24T22:18:53.594Z,63.41
2023-05-24T22:21:55.600Z,63.40
2023-05-24T22:24:59.562Z,63.36
2023-05-24T22:28:01.410Z,63.37
2023-05-24T22:31:03.116Z,63.40
2023-05-24T22:34:04.914Z,63.41
2023-05-24T22:37:06.780Z,63.40
2023-05-24T22:40:08.814Z,63.33
2023-05-24T22:43:10.601Z,63.27
2023-05-24T22:46:12.388Z,63.40
2023-05-24T22:49:18.600Z,63.30
2023-05-24T22:52:20.422Z,63.34
2023-05-24T22:55:22.320Z,63.22
2023-05-24T22:58:24.289Z,63.19
2023-05-24T23:01:26.220Z,63.13
2023-05-24T23:04:28.256Z,63.20
2023-05-24T23:07:30.067Z,63.04
2023-05-24T23:10:31.818Z,63.10
2023-05-24T23:13:35.306Z,63.05
2023-05-24T23:16:39.504Z,63.07
2023-05-24T23:19:42.729Z,62.98
2023-05-24T23:22:46.168Z,62.93
2023-05-24T23:25:51.119Z,62.84
2023-05-24T23:28:52.845Z,62.84
2023-05-24T23:31:54.600Z,62.94
2023-05-24T23:34:56.307Z,62.81
2023-05-24T23:37:58.035Z,63.04
2023-05-24T23:41:00.047Z,62.88
2023-05-24T23:44:01.807Z,62.83
2023-05-24T23:47:03.953Z,62.91
2023-05-24T23:50:06.507Z,63.01
2023-05-24T23:53:08.432Z,62.83
2023-05-24T23:56:10.593Z,62.71
2023-05-24T23:59:12.325Z,62.87
